sensor_id;sensor_type;location;lat;lon;timestamp;pressure;altitude;pressure_sealevel;temperature;humidity
58658;BME280;44428;45.630;13.786;2023-02-12T00:01:14;103089.59;;;2.22;58.10
58658;BME280;44428;45.630;13.786;2023-02-12T00:03:40;103070.44;;;2.23;59.27
58658;BME280;44428;45.630;13.786;2023-02-12T00:06:08;103078.31;;;2.28;59.28
58658;BME280;44428;45.630;13.786;2023-02-12T00:08:36;103074.81;;;2.29;59.17
58658;BME280;44428;45.630;13.786;2023-02-12T00:11:17;103076.53;;;2.24;58.38
58658;BME280;44428;45.630;13.786;2023-02-12T00:13:44;103083.50;;;2.19;58.39
58658;BME280;44428;45.630;13.786;2023-02-12T00:16:14;103077.41;;;2.12;58.70
58658;BME280;44428;45.630;13.786;2023-02-12T00:18:41;103084.31;;;2.07;59.41
58658;BME280;44428;45.630;13.786;2023-02-12T00:21:08;103077.38;;;2.06;60.48
58658;BME280;44428;45.630;13.786;2023-02-12T00:23:35;103080.84;;;2.05;61.76
58658;BME280;44428;45.630;13.786;2023-02-12T00:26:10;103066.94;;;2.06;62.18
58658;BME280;44428;45.630;13.786;2023-02-12T00:28:38;103073.88;;;2.02;62.26
58658;BME280;44428;45.630;13.786;2023-02-12T00:31:13;103069.56;;;2.03;62.24
58658;BME280;44428;45.630;13.786;2023-02-12T00:33:40;103064.31;;;2.01;61.51
58658;BME280;44428;45.630;13.786;2023-02-12T00:36:07;103066.94;;;2.00;60.95
58658;BME280;44428;45.630;13.786;2023-02-12T00:38:34;103073.88;;;1.98;60.72
58658;BME280;44428;45.630;13.786;2023-02-12T00:41:00;103079.06;;;1.89;60.89
58658;BME280;44428;45.630;13.786;2023-02-12T00:43:27;103085.13;;;1.88;60.29
58658;BME280;44428;45.630;13.786;2023-02-12T00:45:53;103091.19;;;1.87;60.15
58658;BME280;44428;45.630;13.786;2023-02-12T00:48:19;103085.97;;;1.87;60.82
58658;BME280;44428;45.630;13.786;2023-02-12T00:50:47;103080.75;;;1.83;61.49
58658;BME280;44428;45.630;13.786;2023-02-12T00:53:14;103080.75;;;1.80;61.94
58658;BME280;44428;45.630;13.786;2023-02-12T00:55:40;103087.69;;;1.81;62.57
58658;BME280;44428;45.630;13.786;2023-02-12T00:58:07;103080.78;;;1.90;63.79
58658;BME280;44428;45.630;13.786;2023-02-12T01:00:34;103079.06;;;1.92;63.88
58658;BME280;44428;45.630;13.786;2023-02-12T01:03:02;103081.66;;;1.89;64.82
58658;BME280;44428;45.630;13.786;2023-02-12T01:05:31;103081.63;;;1.87;65.19
58658;BME280;44428;45.630;13.786;2023-02-12T01:07:58;103081.66;;;1.89;65.56
58658;BME280;44428;45.630;13.786;2023-02-12T01:10:24;103070.31;;;1.80;66.45
58658;BME280;44428;45.630;13.786;2023-02-12T01:12:51;103072.91;;;1.74;66.43
58658;BME280;44428;45.630;13.786;2023-02-12T01:15:18;103078.97;;;1.67;67.26
58658;BME280;44428;45.630;13.786;2023-02-12T01:17:45;103073.75;;;1.67;68.00
58658;BME280;44428;45.630;13.786;2023-02-12T01:20:14;103076.34;;;1.64;68.73
58658;BME280;44428;45.630;13.786;2023-02-12T01:22:43;103068.53;;;1.67;69.04
58658;BME280;44428;45.630;13.786;2023-02-12T01:25:11;103069.38;;;1.66;69.82
58658;BME280;44428;45.630;13.786;2023-02-12T01:27:38;103058.06;;;1.63;70.16
58658;BME280;44428;45.630;13.786;2023-02-12T01:30:05;103068.53;;;1.67;70.83
58658;BME280;44428;45.630;13.786;2023-02-12T01:32:33;103047.69;;;1.67;71.09
58658;BME280;44428;45.630;13.786;2023-02-12T01:35:00;103049.44;;;1.71;71.25
58658;BME280;44428;45.630;13.786;2023-02-12T01:37:26;103052.09;;;1.85;70.82
58658;BME280;44428;45.630;13.786;2023-02-12T01:39:52;103049.53;;;1.99;69.27
58658;BME280;44428;45.630;13.786;2023-02-12T01:42:19;103053.00;;;1.98;66.83
58658;BME280;44428;45.630;13.786;2023-02-12T01:47:40;103051.25;;;1.89;64.96
58658;BME280;44428;45.630;13.786;2023-02-12T01:50:13;103044.25;;;1.80;65.02
58658;BME280;44428;45.630;13.786;2023-02-12T01:52:44;103046.84;;;1.77;65.61
58658;BME280;44428;45.630;13.786;2023-02-12T01:55:12;103042.50;;;1.76;65.04
58658;BME280;44428;45.630;13.786;2023-02-12T01:57:42;103047.72;;;1.76;64.74
58658;BME280;44428;45.630;13.786;2023-02-12T02:00:14;103043.38;;;1.78;64.69
58658;BME280;44428;45.630;13.786;2023-02-12T02:02:43;103040.78;;;1.84;64.64
58658;BME280;44428;45.630;13.786;2023-02-12T02:05:12;103040.78;;;1.81;65.33
58658;BME280;44428;45.630;13.786;2023-02-12T02:07:42;103028.59;;;1.74;65.70
58658;BME280;44428;45.630;13.786;2023-02-12T02:10:09;103019.91;;;1.74;66.31
58658;BME280;44428;45.630;13.786;2023-02-12T02:12:35;103028.59;;;1.74;67.25
58658;BME280;44428;45.630;13.786;2023-02-12T02:15:20;103025.09;;;1.75;67.93
58658;BME280;44428;45.630;13.786;2023-02-12T02:17:50;103025.09;;;1.72;68.00
58658;BME280;44428;45.630;13.786;2023-02-12T02:20:41;103027.69;;;1.66;68.27
58658;BME280;44428;45.630;13.786;2023-02-12T02:29:33;103016.41;;;1.64;68.14
58658;BME280;44428;45.630;13.786;2023-02-12T02:32:17;103012.06;;;1.75;69.05
58658;BME280;44428;45.630;13.786;2023-02-12T02:37:18;103014.69;;;1.75;68.24
58658;BME280;44428;45.630;13.786;2023-02-12T02:40:10;103015.56;;;1.71;67.69
58658;BME280;44428;45.630;13.786;2023-02-12T02:42:55;103009.47;;;1.68;67.09
58658;BME280;44428;45.630;13.786;2023-02-12T02:48:05;103006.00;;;1.67;66.92
58658;BME280;44428;45.630;13.786;2023-02-12T02:50:38;103007.72;;;1.68;67.33
58658;BME280;44428;45.630;13.786;2023-02-12T02:53:14;103007.72;;;1.71;67.81
58658;BME280;44428;45.630;13.786;2023-02-12T02:55:46;103004.25;;;1.78;68.28
58658;BME280;44428;45.630;13.786;2023-02-12T02:58:18;103007.72;;;1.68;68.69
58658;BME280;44428;45.630;13.786;2023-02-12T03:01:00;103002.50;;;1.62;69.10
58658;BME280;44428;45.630;13.786;2023-02-12T03:03:36;103004.22;;;1.63;67.98
58658;BME280;44428;45.630;13.786;2023-02-12T03:06:08;103005.97;;;1.64;67.12
58658;BME280;44428;45.630;13.786;2023-02-12T03:08:47;103000.75;;;1.64;66.27
58658;BME280;44428;45.630;13.786;2023-02-12T03:11:24;102992.06;;;1.62;65.10
58658;BME280;44428;45.630;13.786;2023-02-12T03:13:58;102992.06;;;1.62;63.91
58658;BME280;44428;45.630;13.786;2023-02-12T03:16:31;102989.47;;;1.65;62.92
58658;BME280;44428;45.630;13.786;2023-02-12T03:21:59;102992.09;;;1.77;60.89
58658;BME280;44428;45.630;13.786;2023-02-12T03:24:38;102992.13;;;1.90;59.72
58658;BME280;44428;45.630;13.786;2023-02-12T03:27:08;102991.31;;;1.94;60.08
58658;BME280;44428;45.630;13.786;2023-02-12T03:29:36;102990.44;;;1.98;58.63
58658;BME280;44428;45.630;13.786;2023-02-12T03:34:49;102999.97;;;1.90;59.62
58658;BME280;44428;45.630;13.786;2023-02-12T03:48:19;103006.06;;;1.89;59.72
58658;BME280;44428;45.630;13.786;2023-02-12T03:51:04;102977.38;;;1.82;58.53
58658;BME280;44428;45.630;13.786;2023-02-12T03:53:36;102978.22;;;1.81;57.05
58658;BME280;44428;45.630;13.786;2023-02-12T03:56:14;102980.81;;;1.81;54.24
58658;BME280;44428;45.630;13.786;2023-02-12T03:58:44;102983.41;;;1.81;53.66
58658;BME280;44428;45.630;13.786;2023-02-12T04:01:11;102974.75;;;1.86;50.80
58658;BME280;44428;45.630;13.786;2023-02-12T04:03:38;102967.78;;;1.84;52.25
58658;BME280;44428;45.630;13.786;2023-02-12T04:06:22;102960.81;;;1.74;52.83
58658;BME280;44428;45.630;13.786;2023-02-12T04:08:48;102972.97;;;1.69;52.07
58658;BME280;44428;45.630;13.786;2023-02-12T04:11:34;102995.56;;;1.64;52.61
58658;BME280;44428;45.630;13.786;2023-02-12T04:17:04;103009.41;;;1.54;54.43
58658;BME280;44428;45.630;13.786;2023-02-12T04:28:09;103019.81;;;1.51;57.52
58658;BME280;44428;45.630;13.786;2023-02-12T04:31:10;103023.31;;;1.59;57.16
58658;BME280;44428;45.630;13.786;2023-02-12T04:33:42;103025.09;;;1.72;57.57
58658;BME280;44428;45.630;13.786;2023-02-12T04:36:26;103013.81;;;1.78;57.09
58658;BME280;44428;45.630;13.786;2023-02-12T04:38:57;103005.19;;;1.90;56.63
58658;BME280;44428;45.630;13.786;2023-02-12T04:41:25;102993.03;;;1.98;56.62
58658;BME280;44428;45.630;13.786;2023-02-12T04:43:52;102999.16;;;2.03;56.05
58658;BME280;44428;45.630;13.786;2023-02-12T04:46:18;102995.66;;;2.04;56.12
58658;BME280;44428;45.630;13.786;2023-02-12T04:48:53;102981.75;;;2.11;55.57
58658;BME280;44428;45.630;13.786;2023-02-12T04:51:20;102986.97;;;2.11;55.39
58658;BME280;44428;45.630;13.786;2023-02-12T04:53:47;103006.09;;;2.10;54.50
58658;BME280;44428;45.630;13.786;2023-02-12T04:56:14;103023.50;;;2.17;53.88
58658;BME280;44428;45.630;13.786;2023-02-12T04:58:41;103021.75;;;2.07;53.20
58658;BME280;44428;45.630;13.786;2023-02-12T05:01:08;103022.59;;;1.97;53.45
58658;BME280;44428;45.630;13.786;2023-02-12T05:03:35;103019.97;;;1.91;53.71
58658;BME280;44428;45.630;13.786;2023-02-12T05:06:07;103016.47;;;1.82;53.73
58658;BME280;44428;45.630;13.786;2023-02-12T05:08:34;103014.69;;;1.75;53.62
58658;BME280;44428;45.630;13.786;2023-02-12T05:11:05;103011.19;;;1.67;54.26
58658;BME280;44428;45.630;13.786;2023-02-12T05:13:32;103009.44;;;1.63;54.88
58658;BME280;44428;45.630;13.786;2023-02-12T05:15:59;103005.97;;;1.58;55.39
58658;BME280;44428;45.630;13.786;2023-02-12T05:18:25;103012.88;;;1.56;56.33
58658;BME280;44428;45.630;13.786;2023-02-12T05:20:56;103028.50;;;1.50;56.63
58658;BME280;44428;45.630;13.786;2023-02-12T05:23:28;103012.81;;;1.41;57.22
58658;BME280;44428;45.630;13.786;2023-02-12T05:25:58;103004.09;;;1.32;57.59
58658;BME280;44428;45.630;13.786;2023-02-12T05:28:25;103005.84;;;1.33;58.15
58658;BME280;44428;45.630;13.786;2023-02-12T05:30:51;103011.06;;;1.36;57.14
58658;BME280;44428;45.630;13.786;2023-02-12T05:33:17;103002.34;;;1.31;56.91
58658;BME280;44428;45.630;13.786;2023-02-12T05:35:44;102997.19;;;1.37;57.11
58658;BME280;44428;45.630;13.786;2023-02-12T05:38:10;102996.31;;;1.38;55.59
58658;BME280;44428;45.630;13.786;2023-02-12T05:40:36;102995.53;;;1.58;54.33
58658;BME280;44428;45.630;13.786;2023-02-12T05:43:03;103012.88;;;1.56;54.43
58658;BME280;44428;45.630;13.786;2023-02-12T05:45:29;103007.69;;;1.59;53.72
58658;BME280;44428;45.630;13.786;2023-02-12T05:47:55;102999.84;;;1.53;53.33
58658;BME280;44428;45.630;13.786;2023-02-12T05:50:22;102993.75;;;1.51;52.40
58658;BME280;44428;45.630;13.786;2023-02-12T05:53:01;102991.97;;;1.41;52.75
58658;BME280;44428;45.630;13.786;2023-02-12T05:55:27;102999.75;;;1.36;53.71
58658;BME280;44428;45.630;13.786;2023-02-12T05:57:53;103002.34;;;1.31;53.95
58658;BME280;44428;45.630;13.786;2023-02-12T06:00:20;103009.34;;;1.42;53.25
58658;BME280;44428;45.630;13.786;2023-02-12T06:02:47;103010.22;;;1.44;52.53
58658;BME280;44428;45.630;13.786;2023-02-12T06:05:13;103011.09;;;1.40;52.99
58658;BME280;44428;45.630;13.786;2023-02-12T06:07:39;103011.06;;;1.33;53.55
58658;BME280;44428;45.630;13.786;2023-02-12T06:10:06;102998.84;;;1.23;54.22
58658;BME280;44428;45.630;13.786;2023-02-12T06:12:32;103007.47;;;1.16;54.28
58658;BME280;44428;45.630;13.786;2023-02-12T06:14:59;103018.75;;;1.13;54.84
58658;BME280;44428;45.630;13.786;2023-02-12T06:17:25;103019.63;;;1.14;55.11
58658;BME280;44428;45.630;13.786;2023-02-12T06:19:51;103023.13;;;1.19;55.26
58658;BME280;44428;45.630;13.786;2023-02-12T06:22:17;103035.28;;;1.23;54.71
58658;BME280;44428;45.630;13.786;2023-02-12T06:24:43;103024.94;;;1.38;53.32
58658;BME280;44428;45.630;13.786;2023-02-12T06:27:09;103020.59;;;1.39;52.77
58658;BME280;44428;45.630;13.786;2023-02-12T06:29:36;103018.06;;;1.50;51.85
58658;BME280;44428;45.630;13.786;2023-02-12T06:32:02;103019.81;;;1.54;51.15
58658;BME280;44428;45.630;13.786;2023-02-12T06:34:28;103028.53;;;1.62;49.78
58658;BME280;44428;45.630;13.786;2023-02-12T06:36:55;103032.03;;;1.64;49.39
58658;BME280;44428;45.630;13.786;2023-02-12T06:39:21;103030.25;;;1.60;49.41
58658;BME280;44428;45.630;13.786;2023-02-12T06:41:47;103038.09;;;1.63;49.57
58658;BME280;44428;45.630;13.786;2023-02-12T06:44:13;103039.00;;;1.68;49.27
58658;BME280;44428;45.630;13.786;2023-02-12T06:46:39;103039.00;;;1.68;49.09
58658;BME280;44428;45.630;13.786;2023-02-12T06:49:06;103044.22;;;1.71;48.65
58658;BME280;44428;45.630;13.786;2023-02-12T06:51:32;103049.44;;;1.73;49.22
58658;BME280;44428;45.630;13.786;2023-02-12T06:53:58;103045.97;;;1.78;48.29
58658;BME280;44428;45.630;13.786;2023-02-12T06:56:25;103056.47;;;1.91;47.79
58658;BME280;44428;45.630;13.786;2023-02-12T06:58:57;103056.50;;;2.00;47.85
58658;BME280;44428;45.630;13.786;2023-02-12T07:01:27;103048.69;;;2.09;48.08
58658;BME280;44428;45.630;13.786;2023-02-12T07:04:19;103044.34;;;2.11;48.20
58658;BME280;44428;45.630;13.786;2023-02-12T07:07:39;103025.22;;;2.06;48.32
58658;BME280;44428;45.630;13.786;2023-02-12T07:10:50;103023.50;;;2.20;47.12
58658;BME280;44428;45.630;13.786;2023-02-12T07:13:43;103036.56;;;2.48;46.98
58658;BME280;44428;45.630;13.786;2023-02-12T07:17:06;103027.88;;;2.66;45.14
58658;BME280;44428;45.630;13.786;2023-02-12T07:20:12;103046.16;;;2.89;45.00
58658;BME280;44428;45.630;13.786;2023-02-12T07:23:10;103025.25;;;2.92;45.21
58658;BME280;44428;45.630;13.786;2023-02-12T07:30:05;103032.19;;;3.11;46.04
58658;BME280;44428;45.630;13.786;2023-02-12T07:33:28;103049.56;;;3.34;46.41
58658;BME280;44428;45.630;13.786;2023-02-12T07:36:58;103080.81;;;3.67;46.54
58658;BME280;44428;45.630;13.786;2023-02-12T07:39:51;103049.50;;;3.58;47.04
58658;BME280;44428;45.630;13.786;2023-02-12T07:43:27;103051.16;;;3.78;46.63
58658;BME280;44428;45.630;13.786;2023-02-12T07:46:09;103068.53;;;3.91;46.36
58658;BME280;44428;45.630;13.786;2023-02-12T07:48:49;103030.16;;;3.93;46.36
58658;BME280;44428;45.630;13.786;2023-02-12T07:51:49;103030.06;;;4.08;46.01
58658;BME280;44428;45.630;13.786;2023-02-12T07:54:56;103055.19;;;4.35;45.87
58658;BME280;44428;45.630;13.786;2023-02-12T07:58:25;103051.59;;;4.47;45.62
58658;BME280;44428;45.630;13.786;2023-02-12T08:01:39;103064.56;;;4.66;45.03
58658;BME280;44428;45.630;13.786;2023-02-12T08:05:02;103095.84;;;4.84;44.97
58658;BME280;44428;45.630;13.786;2023-02-12T08:08:12;103058.41;;;4.73;44.73
58658;BME280;44428;45.630;13.786;2023-02-12T08:11:16;103060.81;;;4.97;45.11
58658;BME280;44428;45.630;13.786;2023-02-12T08:14:29;103052.91;;;5.02;45.36
58658;BME280;44428;45.630;13.786;2023-02-12T08:17:29;103046.75;;;5.04;45.25
58658;BME280;44428;45.630;13.786;2023-02-12T08:20:36;103072.72;;;5.29;44.75
58658;BME280;44428;45.630;13.786;2023-02-12T08:23:19;103083.94;;;5.43;43.86
58658;BME280;44428;45.630;13.786;2023-02-12T08:29:27;103075.78;;;5.68;43.61
58658;BME280;44428;45.630;13.786;2023-02-12T08:32:39;103089.53;;;5.88;43.20
58658;BME280;44428;45.630;13.786;2023-02-12T08:35:46;103103.38;;;6.06;42.68
58658;BME280;44428;45.630;13.786;2023-02-12T08:38:47;103120.47;;;6.34;42.05
58658;BME280;44428;45.630;13.786;2023-02-12T08:41:19;103114.19;;;6.46;42.05
58658;BME280;44428;45.630;13.786;2023-02-12T08:44:14;103107.91;;;6.55;42.05
58658;BME280;44428;45.630;13.786;2023-02-12T08:47:03;103113.00;;;6.67;42.49
58658;BME280;44428;45.630;13.786;2023-02-12T08:49:59;103125.81;;;6.87;42.17
58658;BME280;44428;45.630;13.786;2023-02-12T08:52:51;103119.72;;;6.83;44.54
58658;BME280;44428;45.630;13.786;2023-02-12T08:55:47;103102.19;;;6.85;45.01
58658;BME280;44428;45.630;13.786;2023-02-12T08:58:52;103131.47;;;7.15;45.42
58658;BME280;44428;45.630;13.786;2023-02-12T09:01:57;103106.88;;;7.19;45.73
58658;BME280;44428;45.630;13.786;2023-02-12T09:05:14;103131.91;;;7.42;47.92
58658;BME280;44428;45.630;13.786;2023-02-12T09:08:10;103153.41;;;7.62;48.04
58658;BME280;44428;45.630;13.786;2023-02-12T09:10:58;103167.13;;;7.79;48.17
58658;BME280;44428;45.630;13.786;2023-02-12T09:13:50;103148.72;;;7.79;48.55
58658;BME280;44428;45.630;13.786;2023-02-12T09:16:21;103120.34;;;7.49;50.35
58658;BME280;44428;45.630;13.786;2023-02-12T09:19:21;103173.13;;;7.86;50.20
58658;BME280;44428;45.630;13.786;2023-02-12T09:22:13;103160.03;;;7.85;50.80
58658;BME280;44428;45.630;13.786;2023-02-12T09:25:09;103156.31;;;7.95;51.01
58658;BME280;44428;45.630;13.786;2023-02-12T09:28:34;103156.91;;;8.08;51.44
58658;BME280;44428;45.630;13.786;2023-02-12T09:31:34;103162.94;;;8.14;52.30
58658;BME280;44428;45.630;13.786;2023-02-12T09:34:21;103190.63;;;8.34;52.51
58658;BME280;44428;45.630;13.786;2023-02-12T09:36:55;103188.19;;;8.24;53.90
58658;BME280;44428;45.630;13.786;2023-02-12T09:39:58;103166.38;;;8.16;54.03
58658;BME280;44428;45.630;13.786;2023-02-12T09:42:59;103197.25;;;8.53;54.47
58658;BME280;44428;45.630;13.786;2023-02-12T09:45:57;103200.31;;;8.74;55.16
58658;BME280;44428;45.630;13.786;2023-02-12T09:48:41;103207.69;;;8.97;54.46
58658;BME280;44428;45.630;13.786;2023-02-12T09:51:10;103206.63;;;9.05;54.62
58658;BME280;44428;45.630;13.786;2023-02-12T09:53:40;103213.06;;;8.92;56.20
58658;BME280;44428;45.630;13.786;2023-02-12T09:56:13;103205.94;;;9.33;55.37
58658;BME280;44428;45.630;13.786;2023-02-12T09:58:44;103209.44;;;9.68;54.22
58658;BME280;44428;45.630;13.786;2023-02-12T10:01:17;103218.19;;;10.02;53.33
58658;BME280;44428;45.630;13.786;2023-02-12T10:03:44;103216.59;;;9.95;53.26
58658;BME280;44428;45.630;13.786;2023-02-12T10:06:15;103216.13;;;10.14;52.51
58658;BME280;44428;45.630;13.786;2023-02-12T10:09:23;103223.91;;;10.18;51.81
58658;BME280;44428;45.630;13.786;2023-02-12T10:12:19;103218.59;;;9.87;52.22
58658;BME280;44428;45.630;13.786;2023-02-12T10:17:41;103237.75;;;10.28;50.95
58658;BME280;44428;45.630;13.786;2023-02-12T10:25:56;103236.47;;;11.79;47.31
58658;BME280;44428;45.630;13.786;2023-02-12T10:28:34;103225.84;;;12.98;44.92
58658;BME280;44428;45.630;13.786;2023-02-12T10:31:13;103229.69;;;13.75;42.88
58658;BME280;44428;45.630;13.786;2023-02-12T10:33:45;103226.00;;;14.58;41.00
58658;BME280;44428;45.630;13.786;2023-02-12T10:38:41;103218.19;;;18.27;33.29
58658;BME280;44428;45.630;13.786;2023-02-12T10:41:13;103209.72;;;20.33;29.82
58658;BME280;44428;45.630;13.786;2023-02-12T10:43:40;103205.75;;;21.81;27.69
58658;BME280;44428;45.630;13.786;2023-02-12T10:46:15;103205.31;;;23.19;25.53
58658;BME280;44428;45.630;13.786;2023-02-12T10:48:48;103204.03;;;22.03;25.45
58658;BME280;44428;45.630;13.786;2023-02-12T10:53:49;103215.63;;;21.23;27.87
58658;BME280;44428;45.630;13.786;2023-02-12T10:56:20;103219.34;;;20.48;29.61
58658;BME280;44428;45.630;13.786;2023-02-12T11:01:25;103225.41;;;19.62;32.30
58658;BME280;44428;45.630;13.786;2023-02-12T11:03:55;103217.69;;;18.91;33.60
58658;BME280;44428;45.630;13.786;2023-02-12T11:06:30;103209.81;;;18.19;34.92
58658;BME280;44428;45.630;13.786;2023-02-12T11:08:57;103213.47;;;17.74;36.02
58658;BME280;44428;45.630;13.786;2023-02-12T11:11:28;103217.94;;;16.83;37.79
58658;BME280;44428;45.630;13.786;2023-02-12T11:14:04;103220.31;;;16.07;39.46
58658;BME280;44428;45.630;13.786;2023-02-12T11:16:37;103223.53;;;16.78;38.86
58658;BME280;44428;45.630;13.786;2023-02-12T11:19:07;103213.88;;;20.00;33.34
58658;BME280;44428;45.630;13.786;2023-02-12T11:21:44;103212.31;;;19.18;33.69
58658;BME280;44428;45.630;13.786;2023-02-12T11:24:34;103211.09;;;18.55;34.64
58658;BME280;44428;45.630;13.786;2023-02-12T11:29:42;103206.28;;;17.00;37.29
58658;BME280;44428;45.630;13.786;2023-02-12T11:32:17;103200.13;;;17.88;35.86
58658;BME280;44428;45.630;13.786;2023-02-12T11:35:09;103201.13;;;19.51;33.22
58658;BME280;44428;45.630;13.786;2023-02-12T11:37:39;103191.72;;;20.22;31.71
58658;BME280;44428;45.630;13.786;2023-02-12T11:40:15;103199.00;;;21.29;29.79
58658;BME280;44428;45.630;13.786;2023-02-12T11:42:51;103198.69;;;22.25;28.95
58658;BME280;44428;45.630;13.786;2023-02-12T11:45:20;103185.47;;;21.88;29.32
58658;BME280;44428;45.630;13.786;2023-02-12T11:47:47;103203.19;;;23.02;28.63
58658;BME280;44428;45.630;13.786;2023-02-12T11:50:29;103191.31;;;22.50;28.55
58658;BME280;44428;45.630;13.786;2023-02-12T11:53:03;103194.56;;;23.92;27.45
58658;BME280;44428;45.630;13.786;2023-02-12T11:55:35;103183.84;;;24.61;26.28
58658;BME280;44428;45.630;13.786;2023-02-12T12:01:04;103193.81;;;24.80;25.39
58658;BME280;44428;45.630;13.786;2023-02-12T12:03:58;103203.00;;;24.08;26.58
58658;BME280;44428;45.630;13.786;2023-02-12T12:12:11;103197.25;;;23.92;26.89
58658;BME280;44428;45.630;13.786;2023-02-12T12:14:45;103181.09;;;23.08;27.95
58658;BME280;44428;45.630;13.786;2023-02-12T12:17:40;103192.13;;;23.05;28.19
58658;BME280;44428;45.630;13.786;2023-02-12T12:20:32;103193.34;;;23.12;27.83
58658;BME280;44428;45.630;13.786;2023-02-12T12:23:09;103195.34;;;24.04;27.21
58658;BME280;44428;45.630;13.786;2023-02-12T12:25:45;103189.97;;;24.13;27.08
58658;BME280;44428;45.630;13.786;2023-02-12T12:28:32;103187.69;;;23.57;28.03
58658;BME280;44428;45.630;13.786;2023-02-12T12:31:16;103183.72;;;22.55;29.38
58658;BME280;44428;45.630;13.786;2023-02-12T12:33:52;103191.94;;;22.85;28.91
58658;BME280;44428;45.630;13.786;2023-02-12T12:42:34;103182.34;;;23.67;27.52
58658;BME280;44428;45.630;13.786;2023-02-12T12:58:43;103194.63;;;24.42;25.31
58658;BME280;44428;45.630;13.786;2023-02-12T13:29:26;103222.94;;;23.44;25.95
58658;BME280;44428;45.630;13.786;2023-02-12T13:32:44;103199.06;;;22.32;26.61
58658;BME280;44428;45.630;13.786;2023-02-12T13:35:44;103193.63;;;21.29;27.22
58658;BME280;44428;45.630;13.786;2023-02-12T13:39:31;103225.81;;;21.77;26.40
58658;BME280;44428;45.630;13.786;2023-02-12T13:54:17;103229.53;;;20.93;25.69
58658;BME280;44428;45.630;13.786;2023-02-12T13:56:56;103214.09;;;20.84;25.56
58658;BME280;44428;45.630;13.786;2023-02-12T14:01:59;103218.28;;;20.64;24.73
58658;BME280;44428;45.630;13.786;2023-02-12T14:04:43;103233.03;;;20.82;24.22
58658;BME280;44428;45.630;13.786;2023-02-12T14:07:14;103226.38;;;20.75;23.93
58658;BME280;44428;45.630;13.786;2023-02-12T14:12:29;103229.03;;;20.64;24.26
58658;BME280;44428;45.630;13.786;2023-02-12T14:15:08;103241.06;;;20.32;24.03
58658;BME280;44428;45.630;13.786;2023-02-12T14:27:50;103236.97;;;19.50;25.56
58658;BME280;44428;45.630;13.786;2023-02-12T14:30:33;103232.81;;;19.19;25.56
58658;BME280;44428;45.630;13.786;2023-02-12T14:35:40;103241.47;;;18.83;26.63
58658;BME280;44428;45.630;13.786;2023-02-12T14:40:51;103242.50;;;18.10;26.86
58658;BME280;44428;45.630;13.786;2023-02-12T14:45:52;103253.31;;;17.18;27.62
58658;BME280;44428;45.630;13.786;2023-02-12T14:48:51;103248.81;;;17.18;27.82
58658;BME280;44428;45.630;13.786;2023-02-12T14:51:42;103251.13;;;16.94;28.08
58658;BME280;44428;45.630;13.786;2023-02-12T14:57:32;103250.53;;;16.40;28.66
58658;BME280;44428;45.630;13.786;2023-02-12T15:01:00;103257.19;;;16.16;29.40
58658;BME280;44428;45.630;13.786;2023-02-12T15:06:01;103252.59;;;15.50;29.77
58658;BME280;44428;45.630;13.786;2023-02-12T15:08:52;103249.41;;;14.88;30.23
58658;BME280;44428;45.630;13.786;2023-02-12T15:14:14;103258.97;;;14.15;31.46
58658;BME280;44428;45.630;13.786;2023-02-12T15:22:40;103270.03;;;13.21;33.08
58658;BME280;44428;45.630;13.786;2023-02-12T15:25:33;103262.00;;;12.78;33.01
58658;BME280;44428;45.630;13.786;2023-02-12T15:28:17;103259.34;;;12.55;32.95
58658;BME280;44428;45.630;13.786;2023-02-12T15:30:44;103265.56;;;12.30;33.70
58658;BME280;44428;45.630;13.786;2023-02-12T15:33:23;103271.44;;;12.15;34.21
58658;BME280;44428;45.630;13.786;2023-02-12T15:35:59;103254.47;;;11.96;34.28
58658;BME280;44428;45.630;13.786;2023-02-12T15:39:07;103257.78;;;11.76;34.87
58658;BME280;44428;45.630;13.786;2023-02-12T15:42:35;103251.22;;;11.34;37.06
58658;BME280;44428;45.630;13.786;2023-02-12T15:45:38;103260.97;;;11.06;37.85
58658;BME280;44428;45.630;13.786;2023-02-12T15:48:38;103279.03;;;10.91;38.55
58658;BME280;44428;45.630;13.786;2023-02-12T15:51:53;103266.38;;;10.43;39.36
58658;BME280;44428;45.630;13.786;2023-02-12T15:55:05;103279.34;;;10.20;40.11
58658;BME280;44428;45.630;13.786;2023-02-12T15:58:22;103295.47;;;10.11;40.83
58658;BME280;44428;45.630;13.786;2023-02-12T16:01:31;103273.00;;;9.60;41.50
58658;BME280;44428;45.630;13.786;2023-02-12T16:04:25;103297.00;;;9.49;41.95
58658;BME280;44428;45.630;13.786;2023-02-12T16:07:43;103268.78;;;9.17;41.83
58658;BME280;44428;45.630;13.786;2023-02-12T16:10:29;103296.22;;;9.08;42.13
58658;BME280;44428;45.630;13.786;2023-02-12T16:13:46;103304.47;;;8.93;42.61
58658;BME280;44428;45.630;13.786;2023-02-12T16:16:43;103275.28;;;8.60;43.60
58658;BME280;44428;45.630;13.786;2023-02-12T16:19:35;103290.31;;;8.55;44.10
58658;BME280;44428;45.630;13.786;2023-02-12T16:22:39;103283.66;;;8.36;44.78
58658;BME280;44428;45.630;13.786;2023-02-12T16:25:53;103303.16;;;8.25;45.06
58658;BME280;44428;45.630;13.786;2023-02-12T16:28:33;103328.56;;;8.30;46.03
58658;BME280;44428;45.630;13.786;2023-02-12T16:31:11;103317.41;;;8.15;45.92
58658;BME280;44428;45.630;13.786;2023-02-12T16:33:54;103354.22;;;8.18;46.24
58658;BME280;44428;45.630;13.786;2023-02-12T16:36:51;103341.34;;;8.03;47.26
58658;BME280;44428;45.630;13.786;2023-02-12T16:42:15;103350.25;;;7.94;48.46
58658;BME280;44428;45.630;13.786;2023-02-12T16:44:43;103339.06;;;7.82;48.46
58658;BME280;44428;45.630;13.786;2023-02-12T16:47:19;103349.66;;;7.77;48.53
58658;BME280;44428;45.630;13.786;2023-02-12T16:49:59;103354.97;;;7.75;49.24